sensor_id;sensor_type;location;lat;lon;timestamp;P1;durP1;ratioP1;P2;durP2;ratioP2
39264;SDS011;42646;51.910;7.724;2022-07-23T00:01:08;7.03;;;4.38;;
39264;SDS011;42646;51.910;7.724;2022-07-23T00:03:35;7.03;;;4.43;;
39264;SDS011;42646;51.910;7.724;2022-07-23T00:06:03;6.45;;;4.15;;
39264;SDS011;42646;51.910;7.724;2022-07-23T00:08:35;5.97;;;4.43;;
39264;SDS011;42646;51.910;7.724;2022-07-23T00:11:03;7.40;;;4.30;;
39264;SDS011;42646;51.910;7.724;2022-07-23T00:13:32;7.82;;;4.75;;
39264;SDS011;42646;51.910;7.724;2022-07-23T00:16:00;6.68;;;4.50;;
39264;SDS011;42646;51.910;7.724;2022-07-23T00:18:27;8.13;;;4.60;;
39264;SDS011;42646;51.910;7.724;2022-07-23T00:20:55;6.70;;;4.60;;
39264;SDS011;42646;51.910;7.724;2022-07-23T00:23:23;6.63;;;4.40;;
39264;SDS011;42646;51.910;7.724;2022-07-23T00:25:51;6.45;;;4.25;;
39264;SDS011;42646;51.910;7.724;2022-07-23T00:28:19;7.43;;;4.95;;
39264;SDS011;42646;51.910;7.724;2022-07-23T00:30:48;6.55;;;4.40;;
39264;SDS011;42646;51.910;7.724;2022-07-23T00:33:16;7.50;;;4.97;;
39264;SDS011;42646;51.910;7.724;2022-07-23T00:35:44;7.03;;;4.57;;
39264;SDS011;42646;51.910;7.724;2022-07-23T00:38:12;8.63;;;4.68;;
39264;SDS011;42646;51.910;7.724;2022-07-23T00:40:40;8.07;;;4.50;;
39264;SDS011;42646;51.910;7.724;2022-07-23T00:43:08;6.65;;;4.53;;
39264;SDS011;42646;51.910;7.724;2022-07-23T00:45:36;6.97;;;4.30;;
39264;SDS011;42646;51.910;7.724;2022-07-23T00:48:06;6.10;;;4.30;;
39264;SDS011;42646;51.910;7.724;2022-07-23T00:50:34;7.25;;;4.20;;
39264;SDS011;42646;51.910;7.724;2022-07-23T00:53:02;6.55;;;4.20;;
39264;SDS011;42646;51.910;7.724;2022-07-23T00:55:29;6.55;;;4.32;;
39264;SDS011;42646;51.910;7.724;2022-07-23T00:57:57;6.55;;;4.80;;
39264;SDS011;42646;51.910;7.724;2022-07-23T01:00:25;8.18;;;4.90;;
39264;SDS011;42646;51.910;7.724;2022-07-23T01:02:53;7.53;;;4.82;;
39264;SDS011;42646;51.910;7.724;2022-07-23T01:05:22;8.38;;;4.70;;
39264;SDS011;42646;51.910;7.724;2022-07-23T01:07:50;6.90;;;4.60;;
39264;SDS011;42646;51.910;7.724;2022-07-23T01:10:21;8.32;;;5.70;;
39264;SDS011;42646;51.910;7.724;2022-07-23T01:13:00;8.45;;;5.47;;
39264;SDS011;42646;51.910;7.724;2022-07-23T01:15:29;7.03;;;5.55;;
39264;SDS011;42646;51.910;7.724;2022-07-23T01:17:57;8.60;;;5.80;;
39264;SDS011;42646;51.910;7.724;2022-07-23T01:20:27;7.63;;;6.13;;
39264;SDS011;42646;51.910;7.724;2022-07-23T01:22:57;9.75;;;6.53;;
39264;SDS011;42646;51.910;7.724;2022-07-23T01:25:25;7.82;;;6.53;;
39264;SDS011;42646;51.910;7.724;2022-07-23T01:27:56;8.05;;;6.10;;
39264;SDS011;42646;51.910;7.724;2022-07-23T01:30:23;9.07;;;5.85;;
39264;SDS011;42646;51.910;7.724;2022-07-23T01:32:52;8.23;;;6.20;;
39264;SDS011;42646;51.910;7.724;2022-07-23T01:35:20;9.23;;;6.13;;
39264;SDS011;42646;51.910;7.724;2022-07-23T01:37:49;8.25;;;5.88;;
39264;SDS011;42646;51.910;7.724;2022-07-23T01:40:20;7.55;;;5.65;;
39264;SDS011;42646;51.910;7.724;2022-07-23T01:42:50;8.80;;;6.70;;
39264;SDS011;42646;51.910;7.724;2022-07-23T01:45:18;8.35;;;6.28;;
39264;SDS011;42646;51.910;7.724;2022-07-23T01:47:50;7.28;;;6.35;;
39264;SDS011;42646;51.910;7.724;2022-07-23T01:50:18;8.73;;;5.97;;
39264;SDS011;42646;51.910;7.724;2022-07-23T01:53:01;7.50;;;6.22;;
39264;SDS011;42646;51.910;7.724;2022-07-23T01:55:30;7.90;;;5.90;;
39264;SDS011;42646;51.910;7.724;2022-07-23T01:57:58;7.72;;;5.60;;
39264;SDS011;42646;51.910;7.724;2022-07-23T02:00:28;7.38;;;5.65;;
39264;SDS011;42646;51.910;7.724;2022-07-23T02:02:56;8.45;;;6.57;;
39264;SDS011;42646;51.910;7.724;2022-07-23T02:05:26;7.63;;;6.03;;
39264;SDS011;42646;51.910;7.724;2022-07-23T02:07:54;8.32;;;6.75;;
39264;SDS011;42646;51.910;7.724;2022-07-23T02:10:22;7.60;;;6.35;;
39264;SDS011;42646;51.910;7.724;2022-07-23T02:12:52;8.45;;;6.30;;
39264;SDS011;42646;51.910;7.724;2022-07-23T02:15:20;9.93;;;6.53;;
39264;SDS011;42646;51.910;7.724;2022-07-23T02:17:48;8.77;;;6.68;;
39264;SDS011;42646;51.910;7.724;2022-07-23T02:20:15;8.32;;;6.68;;
39264;SDS011;42646;51.910;7.724;2022-07-23T02:22:43;8.05;;;6.32;;
39264;SDS011;42646;51.910;7.724;2022-07-23T02:25:11;9.07;;;6.63;;
39264;SDS011;42646;51.910;7.724;2022-07-23T02:27:39;8.38;;;6.75;;
39264;SDS011;42646;51.910;7.724;2022-07-23T02:30:08;7.63;;;6.57;;
39264;SDS011;42646;51.910;7.724;2022-07-23T02:32:36;8.32;;;6.90;;
39264;SDS011;42646;51.910;7.724;2022-07-23T02:35:09;7.93;;;6.53;;
39264;SDS011;42646;51.910;7.724;2022-07-23T02:37:36;7.80;;;6.57;;
39264;SDS011;42646;51.910;7.724;2022-07-23T02:40:04;9.20;;;7.28;;
39264;SDS011;42646;51.910;7.724;2022-07-23T02:42:35;8.93;;;7.10;;
39264;SDS011;42646;51.910;7.724;2022-07-23T02:45:04;7.85;;;6.13;;
39264;SDS011;42646;51.910;7.724;2022-07-23T02:47:34;7.70;;;6.10;;
39264;SDS011;42646;51.910;7.724;2022-07-23T02:50:01;7.63;;;6.35;;
39264;SDS011;42646;51.910;7.724;2022-07-23T02:52:31;7.88;;;6.57;;
39264;SDS011;42646;51.910;7.724;2022-07-23T02:55:00;7.85;;;6.03;;
39264;SDS011;42646;51.910;7.724;2022-07-23T02:57:28;7.28;;;6.10;;
39264;SDS011;42646;51.910;7.724;2022-07-23T02:59:56;9.00;;;6.50;;
39264;SDS011;42646;51.910;7.724;2022-07-23T03:02:24;8.40;;;6.30;;
39264;SDS011;42646;51.910;7.724;2022-07-23T03:04:54;7.43;;;6.03;;
39264;SDS011;42646;51.910;7.724;2022-07-23T03:07:22;7.80;;;6.07;;
39264;SDS011;42646;51.910;7.724;2022-07-23T03:09:51;6.57;;;5.80;;
39264;SDS011;42646;51.910;7.724;2022-07-23T03:12:19;7.43;;;5.55;;
39264;SDS011;42646;51.910;7.724;2022-07-23T03:14:46;6.53;;;5.50;;
39264;SDS011;42646;51.910;7.724;2022-07-23T03:17:14;6.68;;;5.53;;
39264;SDS011;42646;51.910;7.724;2022-07-23T03:19:42;7.90;;;6.00;;
39264;SDS011;42646;51.910;7.724;2022-07-23T03:22:11;7.03;;;5.40;;
39264;SDS011;42646;51.910;7.724;2022-07-23T03:24:38;6.40;;;5.35;;
39264;SDS011;42646;51.910;7.724;2022-07-23T03:27:29;7.72;;;5.60;;
39264;SDS011;42646;51.910;7.724;2022-07-23T03:29:58;6.53;;;4.93;;
39264;SDS011;42646;51.910;7.724;2022-07-23T03:32:26;6.45;;;5.57;;
39264;SDS011;42646;51.910;7.724;2022-07-23T03:34:54;7.78;;;6.18;;
39264;SDS011;42646;51.910;7.724;2022-07-23T03:37:25;6.88;;;5.65;;
39264;SDS011;42646;51.910;7.724;2022-07-23T03:39:56;6.38;;;5.10;;
39264;SDS011;42646;51.910;7.724;2022-07-23T03:42:24;6.57;;;5.30;;
39264;SDS011;42646;51.910;7.724;2022-07-23T03:44:52;7.05;;;5.68;;
39264;SDS011;42646;51.910;7.724;2022-07-23T03:47:20;8.88;;;6.60;;
39264;SDS011;42646;51.910;7.724;2022-07-23T03:49:48;8.50;;;5.63;;
39264;SDS011;42646;51.910;7.724;2022-07-23T03:52:17;7.57;;;6.07;;
39264;SDS011;42646;51.910;7.724;2022-07-23T03:54:46;7.05;;;6.07;;
39264;SDS011;42646;51.910;7.724;2022-07-23T03:57:13;7.80;;;5.78;;
39264;SDS011;42646;51.910;7.724;2022-07-23T03:59:41;7.47;;;6.22;;
39264;SDS011;42646;51.910;7.724;2022-07-23T04:02:10;7.43;;;5.93;;
39264;SDS011;42646;51.910;7.724;2022-07-23T04:04:38;8.27;;;5.65;;
39264;SDS011;42646;51.910;7.724;2022-07-23T04:07:06;8.63;;;6.78;;
39264;SDS011;42646;51.910;7.724;2022-07-23T04:09:34;8.68;;;6.50;;
39264;SDS011;42646;51.910;7.724;2022-07-23T04:12:03;7.88;;;6.30;;
39264;SDS011;42646;51.910;7.724;2022-07-23T04:14:31;7.47;;;5.50;;
39264;SDS011;42646;51.910;7.724;2022-07-23T04:16:59;7.35;;;5.85;;
39264;SDS011;42646;51.910;7.724;2022-07-23T04:19:27;8.57;;;5.97;;
39264;SDS011;42646;51.910;7.724;2022-07-23T04:22:03;7.38;;;6.25;;
39264;SDS011;42646;51.910;7.724;2022-07-23T04:24:33;9.65;;;6.30;;
39264;SDS011;42646;51.910;7.724;2022-07-23T04:27:03;8.27;;;6.13;;
39264;SDS011;42646;51.910;7.724;2022-07-23T04:29:31;6.70;;;6.00;;
39264;SDS011;42646;51.910;7.724;2022-07-23T04:31:59;7.47;;;5.75;;
39264;SDS011;42646;51.910;7.724;2022-07-23T04:34:27;8.02;;;6.43;;
39264;SDS011;42646;51.910;7.724;2022-07-23T04:36:55;9.27;;;6.57;;
39264;SDS011;42646;51.910;7.724;2022-07-23T04:39:24;8.13;;;5.55;;
39264;SDS011;42646;51.910;7.724;2022-07-23T04:41:52;7.90;;;6.00;;
39264;SDS011;42646;51.910;7.724;2022-07-23T04:44:21;8.45;;;6.13;;
39264;SDS011;42646;51.910;7.724;2022-07-23T04:46:50;7.45;;;6.25;;
39264;SDS011;42646;51.910;7.724;2022-07-23T04:49:20;7.80;;;6.78;;
39264;SDS011;42646;51.910;7.724;2022-07-23T04:51:47;9.10;;;6.43;;
39264;SDS011;42646;51.910;7.724;2022-07-23T04:54:15;7.53;;;6.47;;
39264;SDS011;42646;51.910;7.724;2022-07-23T04:56:43;10.05;;;6.90;;
39264;SDS011;42646;51.910;7.724;2022-07-23T04:59:11;10.32;;;6.72;;
39264;SDS011;42646;51.910;7.724;2022-07-23T05:01:41;8.18;;;6.35;;
39264;SDS011;42646;51.910;7.724;2022-07-23T05:04:10;7.60;;;6.60;;
39264;SDS011;42646;51.910;7.724;2022-07-23T05:06:38;9.00;;;6.70;;
39264;SDS011;42646;51.910;7.724;2022-07-23T05:09:06;7.57;;;6.30;;
39264;SDS011;42646;51.910;7.724;2022-07-23T05:11:34;8.18;;;6.25;;
39264;SDS011;42646;51.910;7.724;2022-07-23T05:14:02;7.38;;;6.38;;
39264;SDS011;42646;51.910;7.724;2022-07-23T05:16:29;8.70;;;6.47;;
39264;SDS011;42646;51.910;7.724;2022-07-23T05:19:03;8.20;;;6.43;;
39264;SDS011;42646;51.910;7.724;2022-07-23T05:21:33;8.60;;;6.95;;
39264;SDS011;42646;51.910;7.724;2022-07-23T05:24:02;10.82;;;7.90;;
39264;SDS011;42646;51.910;7.724;2022-07-23T05:26:30;9.05;;;8.15;;
39264;SDS011;42646;51.910;7.724;2022-07-23T05:28:58;13.05;;;9.00;;
39264;SDS011;42646;51.910;7.724;2022-07-23T05:31:26;10.93;;;8.70;;
39264;SDS011;42646;51.910;7.724;2022-07-23T05:33:54;10.95;;;8.45;;
39264;SDS011;42646;51.910;7.724;2022-07-23T05:36:23;11.32;;;8.15;;
39264;SDS011;42646;51.910;7.724;2022-07-23T05:38:54;10.77;;;8.07;;
39264;SDS011;42646;51.910;7.724;2022-07-23T05:41:22;10.70;;;8.13;;
39264;SDS011;42646;51.910;7.724;2022-07-23T05:43:49;10.88;;;8.05;;
39264;SDS011;42646;51.910;7.724;2022-07-23T05:46:18;11.15;;;8.52;;
39264;SDS011;42646;51.910;7.724;2022-07-23T05:48:50;9.63;;;7.70;;
39264;SDS011;42646;51.910;7.724;2022-07-23T05:51:42;15.40;;;9.30;;
39264;SDS011;42646;51.910;7.724;2022-07-23T05:54:13;12.38;;;8.55;;
39264;SDS011;42646;51.910;7.724;2022-07-23T05:56:40;10.25;;;7.82;;
39264;SDS011;42646;51.910;7.724;2022-07-23T05:59:08;10.68;;;7.50;;
39264;SDS011;42646;51.910;7.724;2022-07-23T06:01:35;10.43;;;7.82;;
39264;SDS011;42646;51.910;7.724;2022-07-23T06:06:38;10.93;;;7.90;;
39264;SDS011;42646;51.910;7.724;2022-07-23T06:09:09;8.98;;;7.07;;
39264;SDS011;42646;51.910;7.724;2022-07-23T06:11:40;9.90;;;7.60;;
39264;SDS011;42646;51.910;7.724;2022-07-23T06:14:07;12.07;;;7.82;;
39264;SDS011;42646;51.910;7.724;2022-07-23T06:16:46;10.90;;;7.55;;
39264;SDS011;42646;51.910;7.724;2022-07-23T06:19:14;9.50;;;7.53;;
39264;SDS011;42646;51.910;7.724;2022-07-23T06:21:43;9.40;;;7.00;;
39264;SDS011;42646;51.910;7.724;2022-07-23T06:24:15;9.60;;;7.43;;
39264;SDS011;42646;51.910;7.724;2022-07-23T06:26:43;10.68;;;8.25;;
39264;SDS011;42646;51.910;7.724;2022-07-23T06:29:11;10.73;;;7.90;;
39264;SDS011;42646;51.910;7.724;2022-07-23T06:31:38;10.65;;;8.82;;
39264;SDS011;42646;51.910;7.724;2022-07-23T06:34:06;10.25;;;8.60;;
39264;SDS011;42646;51.910;7.724;2022-07-23T06:36:35;10.80;;;7.68;;
39264;SDS011;42646;51.910;7.724;2022-07-23T06:39:04;12.75;;;9.38;;
39264;SDS011;42646;51.910;7.724;2022-07-23T06:41:36;9.77;;;7.50;;
39264;SDS011;42646;51.910;7.724;2022-07-23T06:44:03;10.82;;;8.18;;
39264;SDS011;42646;51.910;7.724;2022-07-23T06:46:34;8.88;;;7.05;;
39264;SDS011;42646;51.910;7.724;2022-07-23T06:49:01;9.48;;;7.90;;
39264;SDS011;42646;51.910;7.724;2022-07-23T06:51:32;9.00;;;6.75;;
39264;SDS011;42646;51.910;7.724;2022-07-23T06:54:00;9.52;;;7.40;;
39264;SDS011;42646;51.910;7.724;2022-07-23T06:56:28;10.38;;;7.43;;
39264;SDS011;42646;51.910;7.724;2022-07-23T06:58:57;10.50;;;7.85;;
39264;SDS011;42646;51.910;7.724;2022-07-23T07:01:25;10.80;;;7.13;;
39264;SDS011;42646;51.910;7.724;2022-07-23T07:03:53;11.25;;;6.45;;
39264;SDS011;42646;51.910;7.724;2022-07-23T07:06:21;8.00;;;5.97;;
39264;SDS011;42646;51.910;7.724;2022-07-23T07:08:50;10.07;;;7.00;;
39264;SDS011;42646;51.910;7.724;2022-07-23T07:11:18;7.65;;;6.05;;
39264;SDS011;42646;51.910;7.724;2022-07-23T07:13:45;10.13;;;7.57;;
39264;SDS011;42646;51.910;7.724;2022-07-23T07:16:14;11.27;;;7.72;;
39264;SDS011;42646;51.910;7.724;2022-07-23T07:18:42;8.98;;;6.60;;
39264;SDS011;42646;51.910;7.724;2022-07-23T07:21:10;10.23;;;7.20;;
39264;SDS011;42646;51.910;7.724;2022-07-23T07:23:37;9.38;;;6.57;;
39264;SDS011;42646;51.910;7.724;2022-07-23T07:26:05;8.77;;;5.80;;
39264;SDS011;42646;51.910;7.724;2022-07-23T07:28:33;8.60;;;5.63;;
39264;SDS011;42646;51.910;7.724;2022-07-23T07:31:01;9.57;;;5.88;;
39264;SDS011;42646;51.910;7.724;2022-07-23T07:33:30;6.93;;;5.22;;
39264;SDS011;42646;51.910;7.724;2022-07-23T07:35:58;8.00;;;5.22;;
39264;SDS011;42646;51.910;7.724;2022-07-23T07:38:26;10.35;;;5.60;;
39264;SDS011;42646;51.910;7.724;2022-07-23T07:40:54;9.18;;;4.80;;
39264;SDS011;42646;51.910;7.724;2022-07-23T07:43:22;5.93;;;4.40;;
39264;SDS011;42646;51.910;7.724;2022-07-23T07:45:49;7.38;;;3.85;;
39264;SDS011;42646;51.910;7.724;2022-07-23T07:48:17;5.88;;;3.65;;
39264;SDS011;42646;51.910;7.724;2022-07-23T07:50:46;9.25;;;4.90;;
39264;SDS011;42646;51.910;7.724;2022-07-23T07:53:15;7.43;;;4.57;;
39264;SDS011;42646;51.910;7.724;2022-07-23T07:55:42;6.78;;;4.40;;
39264;SDS011;42646;51.910;7.724;2022-07-23T07:58:17;7.53;;;5.28;;
39264;SDS011;42646;51.910;7.724;2022-07-23T08:00:44;6.82;;;4.63;;
39264;SDS011;42646;51.910;7.724;2022-07-23T08:03:12;8.13;;;3.85;;
39264;SDS011;42646;51.910;7.724;2022-07-23T08:05:41;6.00;;;3.70;;
39264;SDS011;42646;51.910;7.724;2022-07-23T08:08:10;6.45;;;4.57;;
39264;SDS011;42646;51.910;7.724;2022-07-23T08:10:41;7.90;;;4.28;;
39264;SDS011;42646;51.910;7.724;2022-07-23T08:13:12;7.88;;;4.15;;
39264;SDS011;42646;51.910;7.724;2022-07-23T08:15:41;5.40;;;3.60;;
39264;SDS011;42646;51.910;7.724;2022-07-23T08:18:12;10.05;;;4.50;;
39264;SDS011;42646;51.910;7.724;2022-07-23T08:20:39;7.93;;;4.25;;
39264;SDS011;42646;51.910;7.724;2022-07-23T08:23:08;5.82;;;3.70;;
39264;SDS011;42646;51.910;7.724;2022-07-23T08:25:37;6.50;;;3.78;;
39264;SDS011;42646;51.910;7.724;2022-07-23T08:28:07;5.40;;;3.88;;
39264;SDS011;42646;51.910;7.724;2022-07-23T08:30:36;7.85;;;3.70;;
39264;SDS011;42646;51.910;7.724;2022-07-23T08:33:06;5.93;;;3.60;;
39264;SDS011;42646;51.910;7.724;2022-07-23T08:35:55;7.05;;;3.58;;
39264;SDS011;42646;51.910;7.724;2022-07-23T08:38:24;7.22;;;3.50;;
39264;SDS011;42646;51.910;7.724;2022-07-23T08:40:53;7.05;;;3.92;;
39264;SDS011;42646;51.910;7.724;2022-07-23T08:43:24;4.65;;;3.22;;
39264;SDS011;42646;51.910;7.724;2022-07-23T08:45:53;5.32;;;3.95;;
39264;SDS011;42646;51.910;7.724;2022-07-23T08:48:24;6.32;;;4.25;;
39264;SDS011;42646;51.910;7.724;2022-07-23T08:50:54;6.32;;;3.97;;
39264;SDS011;42646;51.910;7.724;2022-07-23T08:53:25;5.60;;;3.80;;
39264;SDS011;42646;51.910;7.724;2022-07-23T08:55:55;6.47;;;4.22;;
39264;SDS011;42646;51.910;7.724;2022-07-23T08:58:24;5.95;;;3.28;;
39264;SDS011;42646;51.910;7.724;2022-07-23T09:00:54;5.38;;;3.47;;
39264;SDS011;42646;51.910;7.724;2022-07-23T09:03:24;4.28;;;3.30;;
39264;SDS011;42646;51.910;7.724;2022-07-23T09:05:53;4.32;;;2.95;;
39264;SDS011;42646;51.910;7.724;2022-07-23T09:08:25;6.47;;;4.10;;
39264;SDS011;42646;51.910;7.724;2022-07-23T09:11:03;6.80;;;3.90;;
39264;SDS011;42646;51.910;7.724;2022-07-23T09:13:34;4.80;;;3.25;;
39264;SDS011;42646;51.910;7.724;2022-07-23T09:16:05;5.47;;;2.90;;
39264;SDS011;42646;51.910;7.724;2022-07-23T09:18:36;6.03;;;3.03;;
39264;SDS011;42646;51.910;7.724;2022-07-23T09:21:11;5.47;;;3.13;;
39264;SDS011;42646;51.910;7.724;2022-07-23T09:23:46;6.10;;;3.15;;
39264;SDS011;42646;51.910;7.724;2022-07-23T09:28:49;6.70;;;3.35;;
39264;SDS011;42646;51.910;7.724;2022-07-23T09:31:18;5.38;;;2.65;;
39264;SDS011;42646;51.910;7.724;2022-07-23T09:33:46;4.78;;;2.50;;
39264;SDS011;42646;51.910;7.724;2022-07-23T09:36:14;4.78;;;2.70;;
39264;SDS011;42646;51.910;7.724;2022-07-23T09:38:49;4.53;;;2.55;;
39264;SDS011;42646;51.910;7.724;2022-07-23T09:41:17;4.78;;;2.83;;
39264;SDS011;42646;51.910;7.724;2022-07-23T09:43:45;3.47;;;2.25;;
39264;SDS011;42646;51.910;7.724;2022-07-23T09:46:17;4.78;;;2.35;;
39264;SDS011;42646;51.910;7.724;2022-07-23T09:48:46;5.47;;;2.92;;
39264;SDS011;42646;51.910;7.724;2022-07-23T09:51:15;4.88;;;3.15;;
39264;SDS011;42646;51.910;7.724;2022-07-23T09:53:44;10.73;;;2.95;;
39264;SDS011;42646;51.910;7.724;2022-07-23T09:56:14;4.00;;;2.58;;
39264;SDS011;42646;51.910;7.724;2022-07-23T09:58:42;3.35;;;2.10;;
39264;SDS011;42646;51.910;7.724;2022-07-23T10:01:15;4.47;;;2.15;;
39264;SDS011;42646;51.910;7.724;2022-07-23T10:03:43;3.85;;;1.65;;
39264;SDS011;42646;51.910;7.724;2022-07-23T10:06:33;4.40;;;1.88;;
39264;SDS011;42646;51.910;7.724;2022-07-23T10:09:23;4.57;;;2.40;;
39264;SDS011;42646;51.910;7.724;2022-07-23T10:12:14;5.43;;;2.42;;
39264;SDS011;42646;51.910;7.724;2022-07-23T10:15:03;4.20;;;1.92;;
39264;SDS011;42646;51.910;7.724;2022-07-23T10:17:32;4.28;;;2.22;;
39264;SDS011;42646;51.910;7.724;2022-07-23T10:20:00;3.42;;;2.05;;
39264;SDS011;42646;51.910;7.724;2022-07-23T10:22:29;3.55;;;1.90;;
39264;SDS011;42646;51.910;7.724;2022-07-23T10:25:05;3.70;;;2.10;;
39264;SDS011;42646;51.910;7.724;2022-07-23T10:27:47;4.43;;;2.20;;
39264;SDS011;42646;51.910;7.724;2022-07-23T10:30:25;5.57;;;2.00;;
39264;SDS011;42646;51.910;7.724;2022-07-23T10:33:02;3.08;;;1.70;;
39264;SDS011;42646;51.910;7.724;2022-07-23T10:35:41;4.43;;;2.08;;
39264;SDS011;42646;51.910;7.724;2022-07-23T10:38:16;3.33;;;1.60;;
39264;SDS011;42646;51.910;7.724;2022-07-23T10:40:54;4.43;;;2.08;;
39264;SDS011;42646;51.910;7.724;2022-07-23T10:43:25;3.08;;;1.75;;
39264;SDS011;42646;51.910;7.724;2022-07-23T10:45:53;4.38;;;1.77;;
39264;SDS011;42646;51.910;7.724;2022-07-23T10:48:23;4.07;;;1.88;;
39264;SDS011;42646;51.910;7.724;2022-07-23T10:51:05;3.88;;;2.03;;
39264;SDS011;42646;51.910;7.724;2022-07-23T10:59:33;3.78;;;1.92;;
39264;SDS011;42646;51.910;7.724;2022-07-23T11:02:55;3.60;;;1.75;;
39264;SDS011;42646;51.910;7.724;2022-07-23T11:05:25;2.67;;;1.50;;
39264;SDS011;42646;51.910;7.724;2022-07-23T11:08:10;4.72;;;1.80;;
39264;SDS011;42646;51.910;7.724;2022-07-23T11:10:41;5.55;;;1.73;;
39264;SDS011;42646;51.910;7.724;2022-07-23T11:13:30;3.13;;;1.70;;
39264;SDS011;42646;51.910;7.724;2022-07-23T11:16:08;2.60;;;1.40;;
39264;SDS011;42646;51.910;7.724;2022-07-23T11:18:57;2.35;;;1.40;;
39264;SDS011;42646;51.910;7.724;2022-07-23T11:21:51;4.70;;;1.73;;
39264;SDS011;42646;51.910;7.724;2022-07-23T11:24:20;2.70;;;1.60;;
39264;SDS011;42646;51.910;7.724;2022-07-23T11:26:53;3.13;;;1.48;;
39264;SDS011;42646;51.910;7.724;2022-07-23T11:29:45;3.38;;;1.58;;
39264;SDS011;42646;51.910;7.724;2022-07-23T11:35:18;2.40;;;1.40;;
39264;SDS011;42646;51.910;7.724;2022-07-23T11:40:16;3.65;;;1.60;;
39264;SDS011;42646;51.910;7.724;2022-07-23T11:42:54;3.00;;;1.45;;
39264;SDS011;42646;51.910;7.724;2022-07-23T11:45:23;2.58;;;1.30;;
39264;SDS011;42646;51.910;7.724;2022-07-23T11:47:53;4.18;;;1.50;;
39264;SDS011;42646;51.910;7.724;2022-07-23T11:50:22;2.50;;;1.30;;
39264;SDS011;42646;51.910;7.724;2022-07-23T11:52:51;2.28;;;1.27;;
39264;SDS011;42646;51.910;7.724;2022-07-23T11:55:19;2.30;;;1.33;;
39264;SDS011;42646;51.910;7.724;2022-07-23T11:57:47;2.70;;;1.45;;
39264;SDS011;42646;51.910;7.724;2022-07-23T12:00:16;2.75;;;1.40;;
39264;SDS011;42646;51.910;7.724;2022-07-23T12:02:46;3.63;;;1.57;;
39264;SDS011;42646;51.910;7.724;2022-07-23T12:05:19;2.60;;;1.30;;
39264;SDS011;42646;51.910;7.724;2022-07-23T12:07:48;4.35;;;1.42;;
39264;SDS011;42646;51.910;7.724;2022-07-23T12:10:17;2.75;;;1.40;;
39264;SDS011;42646;51.910;7.724;2022-07-23T12:12:47;2.55;;;1.20;;
39264;SDS011;42646;51.910;7.724;2022-07-23T12:15:18;3.10;;;1.30;;
39264;SDS011;42646;51.910;7.724;2022-07-23T12:17:47;2.25;;;1.40;;
39264;SDS011;42646;51.910;7.724;2022-07-23T12:20:19;2.17;;;1.27;;
39264;SDS011;42646;51.910;7.724;2022-07-23T12:22:49;2.35;;;1.30;;
39264;SDS011;42646;51.910;7.724;2022-07-23T12:25:18;3.92;;;1.55;;
39264;SDS011;42646;51.910;7.724;2022-07-23T12:27:57;3.15;;;1.40;;
39264;SDS011;42646;51.910;7.724;2022-07-23T12:30:28;2.72;;;1.20;;
39264;SDS011;42646;51.910;7.724;2022-07-23T12:33:00;4.28;;;1.40;;
39264;SDS011;42646;51.910;7.724;2022-07-23T12:35:36;3.20;;;1.33;;
39264;SDS011;42646;51.910;7.724;2022-07-23T12:38:07;2.60;;;1.40;;
39264;SDS011;42646;51.910;7.724;2022-07-23T12:40:37;2.35;;;1.35;;
39264;SDS011;42646;51.910;7.724;2022-07-23T12:43:11;2.10;;;1.20;;
39264;SDS011;42646;51.910;7.724;2022-07-23T12:45:46;2.65;;;1.20;;
39264;SDS011;42646;51.910;7.724;2022-07-23T12:48:16;3.40;;;1.60;;
39264;SDS011;42646;51.910;7.724;2022-07-23T12:51:06;2.03;;;1.20;;
39264;SDS011;42646;51.910;7.724;2022-07-23T12:53:44;3.03;;;1.45;;
39264;SDS011;42646;51.910;7.724;2022-07-23T12:56:15;4.63;;;1.75;;
39264;SDS011;42646;51.910;7.724;2022-07-23T12:58:46;2.40;;;1.40;;
39264;SDS011;42646;51.910;7.724;2022-07-23T13:01:36;4.30;;;1.58;;
39264;SDS011;42646;51.910;7.724;2022-07-23T13:04:05;3.28;;;1.48;;
39264;SDS011;42646;51.910;7.724;2022-07-23T13:06:41;3.17;;;1.40;;
39264;SDS011;42646;51.910;7.724;2022-07-23T13:09:11;3.33;;;1.67;;
39264;SDS011;42646;51.910;7.724;2022-07-23T13:11:41;3.85;;;1.48;;
39264;SDS011;42646;51.910;7.724;2022-07-23T13:14:10;2.40;;;1.30;;
39264;SDS011;42646;51.910;7.724;2022-07-23T13:16:39;3.60;;;1.70;;
39264;SDS011;42646;51.910;7.724;2022-07-23T13:19:07;2.90;;;1.30;;
39264;SDS011;42646;51.910;7.724;2022-07-23T13:21:38;5.00;;;1.60;;
39264;SDS011;42646;51.910;7.724;2022-07-23T13:24:09;2.97;;;1.42;;
39264;SDS011;42646;51.910;7.724;2022-07-23T13:26:38;2.50;;;1.50;;
39264;SDS011;42646;51.910;7.724;2022-07-23T13:29:07;3.45;;;1.50;;
39264;SDS011;42646;51.910;7.724;2022-07-23T13:31:36;6.90;;;1.80;;
39264;SDS011;42646;51.910;7.724;2022-07-23T13:34:04;3.90;;;1.60;;
39264;SDS011;42646;51.910;7.724;2022-07-23T13:36:33;4.28;;;1.60;;
39264;SDS011;42646;51.910;7.724;2022-07-23T13:39:02;2.72;;;1.40;;
39264;SDS011;42646;51.910;7.724;2022-07-23T13:41:36;2.22;;;1.50;;
39264;SDS011;42646;51.910;7.724;2022-07-23T13:44:04;3.78;;;1.83;;
39264;SDS011;42646;51.910;7.724;2022-07-23T13:46:33;2.17;;;1.33;;
39264;SDS011;42646;51.910;7.724;2022-07-23T13:49:01;2.35;;;1.40;;
39264;SDS011;42646;51.910;7.724;2022-07-23T13:51:32;3.85;;;1.67;;
39264;SDS011;42646;51.910;7.724;2022-07-23T13:54:00;2.95;;;1.70;;
39264;SDS011;42646;51.910;7.724;2022-07-23T13:56:29;3.08;;;1.60;;
39264;SDS011;42646;51.910;7.724;2022-07-23T13:58:58;4.40;;;1.70;;
39264;SDS011;42646;51.910;7.724;2022-07-23T14:01:26;2.42;;;1.50;;
39264;SDS011;42646;51.910;7.724;2022-07-23T14:04:14;2.47;;;1.40;;
39264;SDS011;42646;51.910;7.724;2022-07-23T14:06:43;3.05;;;1.60;;
39264;SDS011;42646;51.910;7.724;2022-07-23T14:09:18;2.88;;;1.50;;
39264;SDS011;42646;51.910;7.724;2022-07-23T14:11:46;2.83;;;1.50;;
39264;SDS011;42646;51.910;7.724;2022-07-23T14:14:15;2.47;;;1.55;;
39264;SDS011;42646;51.910;7.724;2022-07-23T14:16:43;4.45;;;1.88;;
39264;SDS011;42646;51.910;7.724;2022-07-23T14:19:11;2.83;;;1.73;;
39264;SDS011;42646;51.910;7.724;2022-07-23T14:21:39;2.78;;;1.58;;
39264;SDS011;42646;51.910;7.724;2022-07-23T14:24:07;2.83;;;1.70;;
39264;SDS011;42646;51.910;7.724;2022-07-23T14:26:35;2.67;;;1.55;;
39264;SDS011;42646;51.910;7.724;2022-07-23T14:29:03;2.67;;;1.52;;
39264;SDS011;42646;51.910;7.724;2022-07-23T14:31:35;2.35;;;1.50;;
39264;SDS011;42646;51.910;7.724;2022-07-23T14:34:03;2.95;;;1.60;;
39264;SDS011;42646;51.910;7.724;2022-07-23T14:36:33;2.50;;;1.58;;
39264;SDS011;42646;51.910;7.724;2022-07-23T14:39:00;2.42;;;1.60;;
39264;SDS011;42646;51.910;7.724;2022-07-23T14:41:29;2.42;;;1.50;;
39264;SDS011;42646;51.910;7.724;2022-07-23T14:43:56;2.88;;;1.90;;
39264;SDS011;42646;51.910;7.724;2022-07-23T14:46:24;3.42;;;1.70;;
39264;SDS011;42646;51.910;7.724;2022-07-23T14:48:53;3.78;;;2.03;;
39264;SDS011;42646;51.910;7.724;2022-07-23T14:51:21;5.03;;;2.08;;
39264;SDS011;42646;51.910;7.724;2022-07-23T14:53:51;4.15;;;2.00;;
39264;SDS011;42646;51.910;7.724;2022-07-23T14:56:19;2.88;;;1.70;;
39264;SDS011;42646;51.910;7.724;2022-07-23T14:58:47;3.22;;;1.70;;
39264;SDS011;42646;51.910;7.724;2022-07-23T15:01:15;3.35;;;1.95;;
39264;SDS011;42646;51.910;7.724;2022-07-23T15:03:43;3.17;;;1.77;;
39264;SDS011;42646;51.910;7.724;2022-07-23T15:06:12;3.55;;;2.00;;
39264;SDS011;42646;51.910;7.724;2022-07-23T15:08:40;3.13;;;1.70;;
39264;SDS011;42646;51.910;7.724;2022-07-23T15:11:07;3.83;;;2.10;;
39264;SDS011;42646;51.910;7.724;2022-07-23T15:13:36;3.13;;;2.10;;
39264;SDS011;42646;51.910;7.724;2022-07-23T15:16:05;3.80;;;2.00;;
39264;SDS011;42646;51.910;7.724;2022-07-23T15:18:36;2.85;;;1.80;;
39264;SDS011;42646;51.910;7.724;2022-07-23T15:21:03;3.50;;;1.90;;